sensor_id;sensor_type;location;lat;lon;timestamp;P1;durP1;ratioP1;P2;durP2;ratioP2
16922;SDS011;8578;50.938;13.556;2023-09-30T00:02:17;20.27;;;6.57;;
16922;SDS011;8578;50.938;13.556;2023-09-30T00:04:46;14.37;;;5.57;;
16922;SDS011;8578;50.938;13.556;2023-09-30T00:07:13;13.20;;;6.13;;
16922;SDS011;8578;50.938;13.556;2023-09-30T00:09:41;13.50;;;5.73;;
16922;SDS011;8578;50.938;13.556;2023-09-30T00:12:09;16.10;;;6.10;;
16922;SDS011;8578;50.938;13.556;2023-09-30T00:14:37;16.40;;;5.93;;
16922;SDS011;8578;50.938;13.556;2023-09-30T00:17:05;15.87;;;6.03;;
16922;SDS011;8578;50.938;13.556;2023-09-30T00:19:32;16.30;;;5.90;;
16922;SDS011;8578;50.938;13.556;2023-09-30T00:22:01;14.27;;;5.93;;
16922;SDS011;8578;50.938;13.556;2023-09-30T00:24:30;15.03;;;5.73;;
16922;SDS011;8578;50.938;13.556;2023-09-30T00:26:57;11.27;;;4.87;;
16922;SDS011;8578;50.938;13.556;2023-09-30T00:29:25;7.80;;;3.27;;
16922;SDS011;8578;50.938;13.556;2023-09-30T00:31:53;7.43;;;2.83;;
16922;SDS011;8578;50.938;13.556;2023-09-30T00:34:21;4.87;;;2.67;;
16922;SDS011;8578;50.938;13.556;2023-09-30T00:36:48;5.10;;;2.20;;
16922;SDS011;8578;50.938;13.556;2023-09-30T00:39:17;3.47;;;2.00;;
16922;SDS011;8578;50.938;13.556;2023-09-30T00:41:45;2.80;;;2.17;;
16922;SDS011;8578;50.938;13.556;2023-09-30T00:44:13;4.70;;;1.90;;
16922;SDS011;8578;50.938;13.556;2023-09-30T00:46:40;4.00;;;1.50;;
16922;SDS011;8578;50.938;13.556;2023-09-30T00:49:09;2.50;;;1.80;;
16922;SDS011;8578;50.938;13.556;2023-09-30T00:51:37;2.77;;;1.73;;
16922;SDS011;8578;50.938;13.556;2023-09-30T00:54:06;2.30;;;1.60;;
16922;SDS011;8578;50.938;13.556;2023-09-30T00:56:37;2.83;;;1.93;;
16922;SDS011;8578;50.938;13.556;2023-09-30T00:59:07;4.33;;;1.40;;
16922;SDS011;8578;50.938;13.556;2023-09-30T01:01:36;3.63;;;1.80;;
16922;SDS011;8578;50.938;13.556;2023-09-30T01:04:04;2.37;;;1.40;;
16922;SDS011;8578;50.938;13.556;2023-09-30T01:06:33;4.97;;;2.40;;
16922;SDS011;8578;50.938;13.556;2023-09-30T01:09:01;2.90;;;2.60;;
16922;SDS011;8578;50.938;13.556;2023-09-30T01:11:29;3.37;;;2.57;;
16922;SDS011;8578;50.938;13.556;2023-09-30T01:13:59;4.17;;;2.50;;
16922;SDS011;8578;50.938;13.556;2023-09-30T01:16:26;2.70;;;2.20;;
16922;SDS011;8578;50.938;13.556;2023-09-30T01:18:54;3.73;;;2.90;;
16922;SDS011;8578;50.938;13.556;2023-09-30T01:21:21;4.70;;;2.50;;
16922;SDS011;8578;50.938;13.556;2023-09-30T01:23:52;3.37;;;2.00;;
16922;SDS011;8578;50.938;13.556;2023-09-30T01:26:20;4.20;;;2.03;;
16922;SDS011;8578;50.938;13.556;2023-09-30T01:28:48;3.03;;;1.60;;
16922;SDS011;8578;50.938;13.556;2023-09-30T01:31:16;2.30;;;1.50;;
16922;SDS011;8578;50.938;13.556;2023-09-30T01:33:45;2.87;;;1.50;;
16922;SDS011;8578;50.938;13.556;2023-09-30T01:36:13;3.23;;;1.50;;
16922;SDS011;8578;50.938;13.556;2023-09-30T01:38:42;3.50;;;1.50;;
16922;SDS011;8578;50.938;13.556;2023-09-30T01:41:11;4.53;;;1.53;;
16922;SDS011;8578;50.938;13.556;2023-09-30T01:43:42;2.87;;;1.20;;
16922;SDS011;8578;50.938;13.556;2023-09-30T01:46:09;1.70;;;1.13;;
16922;SDS011;8578;50.938;13.556;2023-09-30T01:48:37;4.43;;;1.00;;
16922;SDS011;8578;50.938;13.556;2023-09-30T01:51:05;2.30;;;1.00;;
16922;SDS011;8578;50.938;13.556;2023-09-30T01:53:32;3.47;;;1.23;;
16922;SDS011;8578;50.938;13.556;2023-09-30T01:56:00;2.43;;;1.00;;
16922;SDS011;8578;50.938;13.556;2023-09-30T01:58:30;2.10;;;1.00;;
16922;SDS011;8578;50.938;13.556;2023-09-30T02:01:01;4.27;;;1.37;;
16922;SDS011;8578;50.938;13.556;2023-09-30T02:03:30;3.20;;;0.90;;
16922;SDS011;8578;50.938;13.556;2023-09-30T02:05:59;3.13;;;1.13;;
16922;SDS011;8578;50.938;13.556;2023-09-30T02:08:31;3.30;;;1.13;;
16922;SDS011;8578;50.938;13.556;2023-09-30T02:10:59;6.63;;;1.90;;
16922;SDS011;8578;50.938;13.556;2023-09-30T02:13:29;4.80;;;1.23;;
16922;SDS011;8578;50.938;13.556;2023-09-30T02:15:58;3.37;;;1.20;;
16922;SDS011;8578;50.938;13.556;2023-09-30T02:18:27;4.30;;;1.10;;
16922;SDS011;8578;50.938;13.556;2023-09-30T02:20:55;4.70;;;1.17;;
16922;SDS011;8578;50.938;13.556;2023-09-30T02:23:25;5.03;;;1.50;;
16922;SDS011;8578;50.938;13.556;2023-09-30T02:25:53;2.40;;;1.40;;
16922;SDS011;8578;50.938;13.556;2023-09-30T02:28:21;5.03;;;1.37;;
16922;SDS011;8578;50.938;13.556;2023-09-30T02:30:53;6.60;;;1.60;;
16922;SDS011;8578;50.938;13.556;2023-09-30T02:33:21;5.87;;;1.30;;
16922;SDS011;8578;50.938;13.556;2023-09-30T02:35:48;2.73;;;1.33;;
16922;SDS011;8578;50.938;13.556;2023-09-30T02:38:17;10.63;;;1.37;;
16922;SDS011;8578;50.938;13.556;2023-09-30T02:40:47;5.80;;;1.43;;
16922;SDS011;8578;50.938;13.556;2023-09-30T02:43:18;6.67;;;1.70;;
16922;SDS011;8578;50.938;13.556;2023-09-30T02:45:48;4.33;;;1.30;;
16922;SDS011;8578;50.938;13.556;2023-09-30T02:48:17;5.00;;;1.20;;
16922;SDS011;8578;50.938;13.556;2023-09-30T02:50:45;8.40;;;1.33;;
16922;SDS011;8578;50.938;13.556;2023-09-30T02:53:13;5.60;;;1.60;;
16922;SDS011;8578;50.938;13.556;2023-09-30T02:55:41;9.43;;;1.80;;
16922;SDS011;8578;50.938;13.556;2023-09-30T02:58:09;6.37;;;1.40;;
16922;SDS011;8578;50.938;13.556;2023-09-30T03:00:37;5.33;;;1.40;;
16922;SDS011;8578;50.938;13.556;2023-09-30T03:03:05;4.80;;;1.60;;
16922;SDS011;8578;50.938;13.556;2023-09-30T03:05:34;6.43;;;1.63;;
16922;SDS011;8578;50.938;13.556;2023-09-30T03:08:04;7.33;;;1.50;;
16922;SDS011;8578;50.938;13.556;2023-09-30T03:10:31;6.40;;;1.40;;
16922;SDS011;8578;50.938;13.556;2023-09-30T03:12:59;7.50;;;1.77;;
16922;SDS011;8578;50.938;13.556;2023-09-30T03:15:28;4.53;;;1.20;;
16922;SDS011;8578;50.938;13.556;2023-09-30T03:17:57;6.23;;;1.47;;
16922;SDS011;8578;50.938;13.556;2023-09-30T03:20:26;6.27;;;1.60;;
16922;SDS011;8578;50.938;13.556;2023-09-30T03:22:56;6.03;;;2.00;;
16922;SDS011;8578;50.938;13.556;2023-09-30T03:25:24;4.60;;;1.17;;
16922;SDS011;8578;50.938;13.556;2023-09-30T03:27:52;4.50;;;1.37;;
16922;SDS011;8578;50.938;13.556;2023-09-30T03:30:20;4.90;;;1.43;;
16922;SDS011;8578;50.938;13.556;2023-09-30T03:32:48;5.20;;;1.40;;
16922;SDS011;8578;50.938;13.556;2023-09-30T03:35:16;6.43;;;1.60;;
16922;SDS011;8578;50.938;13.556;2023-09-30T03:37:45;6.17;;;1.60;;
16922;SDS011;8578;50.938;13.556;2023-09-30T03:40:15;4.27;;;1.30;;
16922;SDS011;8578;50.938;13.556;2023-09-30T03:42:47;5.80;;;1.63;;
16922;SDS011;8578;50.938;13.556;2023-09-30T03:45:16;5.80;;;1.90;;
16922;SDS011;8578;50.938;13.556;2023-09-30T03:47:44;6.00;;;1.43;;
16922;SDS011;8578;50.938;13.556;2023-09-30T03:50:15;5.93;;;1.50;;
16922;SDS011;8578;50.938;13.556;2023-09-30T03:52:43;3.83;;;1.10;;
16922;SDS011;8578;50.938;13.556;2023-09-30T03:55:16;4.83;;;1.30;;
16922;SDS011;8578;50.938;13.556;2023-09-30T03:57:47;5.97;;;1.50;;
16922;SDS011;8578;50.938;13.556;2023-09-30T04:00:15;3.57;;;1.27;;
16922;SDS011;8578;50.938;13.556;2023-09-30T04:02:47;4.47;;;1.50;;
16922;SDS011;8578;50.938;13.556;2023-09-30T04:05:17;10.27;;;1.77;;
16922;SDS011;8578;50.938;13.556;2023-09-30T04:07:46;8.93;;;1.60;;
16922;SDS011;8578;50.938;13.556;2023-09-30T04:10:16;4.53;;;1.47;;
16922;SDS011;8578;50.938;13.556;2023-09-30T04:12:47;7.47;;;1.60;;
16922;SDS011;8578;50.938;13.556;2023-09-30T04:15:15;10.17;;;1.97;;
16922;SDS011;8578;50.938;13.556;2023-09-30T04:17:42;5.97;;;1.63;;
16922;SDS011;8578;50.938;13.556;2023-09-30T04:20:10;7.27;;;1.50;;
16922;SDS011;8578;50.938;13.556;2023-09-30T04:22:42;3.27;;;1.43;;
16922;SDS011;8578;50.938;13.556;2023-09-30T04:25:12;8.33;;;1.57;;
16922;SDS011;8578;50.938;13.556;2023-09-30T04:27:44;10.37;;;2.20;;
16922;SDS011;8578;50.938;13.556;2023-09-30T04:30:15;8.80;;;1.80;;
16922;SDS011;8578;50.938;13.556;2023-09-30T04:32:42;5.60;;;1.77;;
16922;SDS011;8578;50.938;13.556;2023-09-30T04:35:10;9.43;;;1.87;;
16922;SDS011;8578;50.938;13.556;2023-09-30T04:37:38;12.10;;;2.13;;
16922;SDS011;8578;50.938;13.556;2023-09-30T04:40:06;9.13;;;1.53;;
16922;SDS011;8578;50.938;13.556;2023-09-30T04:42:41;5.80;;;1.60;;
16922;SDS011;8578;50.938;13.556;2023-09-30T04:45:12;7.73;;;1.80;;
16922;SDS011;8578;50.938;13.556;2023-09-30T04:47:42;6.77;;;2.03;;
16922;SDS011;8578;50.938;13.556;2023-09-30T04:50:11;6.23;;;2.00;;
16922;SDS011;8578;50.938;13.556;2023-09-30T04:52:42;8.67;;;2.03;;
16922;SDS011;8578;50.938;13.556;2023-09-30T04:55:11;7.63;;;2.10;;
16922;SDS011;8578;50.938;13.556;2023-09-30T04:57:42;7.50;;;1.93;;
16922;SDS011;8578;50.938;13.556;2023-09-30T05:00:13;7.53;;;1.60;;
16922;SDS011;8578;50.938;13.556;2023-09-30T05:02:41;11.00;;;1.93;;
16922;SDS011;8578;50.938;13.556;2023-09-30T05:05:11;9.80;;;2.10;;
16922;SDS011;8578;50.938;13.556;2023-09-30T05:07:41;6.97;;;1.73;;
16922;SDS011;8578;50.938;13.556;2023-09-30T05:10:08;6.90;;;1.80;;
16922;SDS011;8578;50.938;13.556;2023-09-30T05:12:40;8.13;;;1.87;;
16922;SDS011;8578;50.938;13.556;2023-09-30T05:15:14;10.13;;;1.83;;
16922;SDS011;8578;50.938;13.556;2023-09-30T05:17:43;11.17;;;1.77;;
16922;SDS011;8578;50.938;13.556;2023-09-30T05:20:12;6.40;;;2.03;;
16922;SDS011;8578;50.938;13.556;2023-09-30T05:22:40;7.90;;;2.10;;
16922;SDS011;8578;50.938;13.556;2023-09-30T05:25:11;9.10;;;1.60;;
16922;SDS011;8578;50.938;13.556;2023-09-30T05:27:38;7.83;;;2.00;;
16922;SDS011;8578;50.938;13.556;2023-09-30T05:30:06;8.03;;;1.83;;
16922;SDS011;8578;50.938;13.556;2023-09-30T05:32:36;6.77;;;1.80;;
16922;SDS011;8578;50.938;13.556;2023-09-30T05:35:05;16.77;;;2.70;;
16922;SDS011;8578;50.938;13.556;2023-09-30T05:37:39;7.87;;;1.97;;
16922;SDS011;8578;50.938;13.556;2023-09-30T05:40:07;5.77;;;1.90;;
16922;SDS011;8578;50.938;13.556;2023-09-30T05:42:43;5.23;;;1.80;;
16922;SDS011;8578;50.938;13.556;2023-09-30T05:45:11;7.07;;;2.20;;
16922;SDS011;8578;50.938;13.556;2023-09-30T05:47:41;11.20;;;1.83;;
16922;SDS011;8578;50.938;13.556;2023-09-30T05:50:10;11.53;;;1.87;;
16922;SDS011;8578;50.938;13.556;2023-09-30T05:52:41;8.93;;;2.03;;
16922;SDS011;8578;50.938;13.556;2023-09-30T05:55:10;7.73;;;2.33;;
16922;SDS011;8578;50.938;13.556;2023-09-30T05:57:38;7.73;;;2.27;;
16922;SDS011;8578;50.938;13.556;2023-09-30T06:00:06;7.10;;;2.00;;
16922;SDS011;8578;50.938;13.556;2023-09-30T06:02:48;8.03;;;1.90;;
16922;SDS011;8578;50.938;13.556;2023-09-30T06:05:18;6.13;;;2.20;;
16922;SDS011;8578;50.938;13.556;2023-09-30T06:07:45;8.37;;;2.20;;
16922;SDS011;8578;50.938;13.556;2023-09-30T06:10:14;8.40;;;2.40;;
16922;SDS011;8578;50.938;13.556;2023-09-30T06:12:43;8.27;;;2.23;;
16922;SDS011;8578;50.938;13.556;2023-09-30T06:15:10;8.97;;;2.37;;
16922;SDS011;8578;50.938;13.556;2023-09-30T06:17:40;7.63;;;2.23;;
16922;SDS011;8578;50.938;13.556;2023-09-30T06:20:10;7.07;;;2.00;;
16922;SDS011;8578;50.938;13.556;2023-09-30T06:22:43;6.47;;;2.23;;
16922;SDS011;8578;50.938;13.556;2023-09-30T06:25:11;7.97;;;2.50;;
16922;SDS011;8578;50.938;13.556;2023-09-30T06:27:40;8.87;;;2.43;;
16922;SDS011;8578;50.938;13.556;2023-09-30T06:30:08;11.10;;;2.40;;
16922;SDS011;8578;50.938;13.556;2023-09-30T06:32:36;5.40;;;2.30;;
16922;SDS011;8578;50.938;13.556;2023-09-30T06:35:04;8.63;;;2.30;;
16922;SDS011;8578;50.938;13.556;2023-09-30T06:37:33;5.40;;;2.53;;
16922;SDS011;8578;50.938;13.556;2023-09-30T06:40:01;8.30;;;2.40;;
16922;SDS011;8578;50.938;13.556;2023-09-30T06:42:30;10.67;;;2.77;;
16922;SDS011;8578;50.938;13.556;2023-09-30T06:44:57;8.37;;;2.50;;
16922;SDS011;8578;50.938;13.556;2023-09-30T06:47:25;8.00;;;3.07;;
16922;SDS011;8578;50.938;13.556;2023-09-30T06:49:54;5.93;;;2.30;;
16922;SDS011;8578;50.938;13.556;2023-09-30T06:52:21;5.90;;;2.00;;
16922;SDS011;8578;50.938;13.556;2023-09-30T06:54:50;10.43;;;2.50;;
16922;SDS011;8578;50.938;13.556;2023-09-30T06:57:18;6.47;;;2.20;;
16922;SDS011;8578;50.938;13.556;2023-09-30T06:59:46;16.70;;;2.30;;
16922;SDS011;8578;50.938;13.556;2023-09-30T07:02:13;8.60;;;2.10;;
16922;SDS011;8578;50.938;13.556;2023-09-30T07:04:41;8.23;;;2.63;;
16922;SDS011;8578;50.938;13.556;2023-09-30T07:07:08;5.30;;;2.17;;
16922;SDS011;8578;50.938;13.556;2023-09-30T07:09:37;9.40;;;2.67;;
16922;SDS011;8578;50.938;13.556;2023-09-30T07:12:07;6.47;;;2.60;;
16922;SDS011;8578;50.938;13.556;2023-09-30T07:14:34;9.90;;;2.00;;
16922;SDS011;8578;50.938;13.556;2023-09-30T07:17:02;10.67;;;2.83;;
16922;SDS011;8578;50.938;13.556;2023-09-30T07:19:32;8.00;;;2.30;;
16922;SDS011;8578;50.938;13.556;2023-09-30T07:22:00;9.60;;;2.50;;
16922;SDS011;8578;50.938;13.556;2023-09-30T07:24:32;7.87;;;2.53;;
16922;SDS011;8578;50.938;13.556;2023-09-30T07:26:59;10.53;;;2.30;;
16922;SDS011;8578;50.938;13.556;2023-09-30T07:29:29;5.47;;;1.77;;
16922;SDS011;8578;50.938;13.556;2023-09-30T07:31:57;7.30;;;1.77;;
16922;SDS011;8578;50.938;13.556;2023-09-30T07:34:24;10.60;;;1.67;;
16922;SDS011;8578;50.938;13.556;2023-09-30T07:36:52;10.03;;;2.30;;
16922;SDS011;8578;50.938;13.556;2023-09-30T07:39:21;10.17;;;2.03;;
16922;SDS011;8578;50.938;13.556;2023-09-30T07:41:50;11.23;;;2.03;;
16922;SDS011;8578;50.938;13.556;2023-09-30T07:44:17;7.53;;;1.93;;
16922;SDS011;8578;50.938;13.556;2023-09-30T07:46:47;14.07;;;1.93;;
16922;SDS011;8578;50.938;13.556;2023-09-30T07:49:14;8.27;;;1.67;;
16922;SDS011;8578;50.938;13.556;2023-09-30T07:51:42;8.17;;;2.17;;
16922;SDS011;8578;50.938;13.556;2023-09-30T07:54:09;7.23;;;1.60;;
16922;SDS011;8578;50.938;13.556;2023-09-30T07:56:56;7.83;;;1.70;;
16922;SDS011;8578;50.938;13.556;2023-09-30T07:59:25;10.23;;;1.53;;
16922;SDS011;8578;50.938;13.556;2023-09-30T08:01:54;9.00;;;1.70;;
16922;SDS011;8578;50.938;13.556;2023-09-30T08:04:23;10.27;;;1.80;;
16922;SDS011;8578;50.938;13.556;2023-09-30T08:06:51;8.67;;;1.60;;
16922;SDS011;8578;50.938;13.556;2023-09-30T08:09:19;7.43;;;1.53;;
16922;SDS011;8578;50.938;13.556;2023-09-30T08:11:50;8.70;;;1.93;;
16922;SDS011;8578;50.938;13.556;2023-09-30T08:14:17;9.23;;;1.70;;
16922;SDS011;8578;50.938;13.556;2023-09-30T08:16:45;5.73;;;1.50;;
16922;SDS011;8578;50.938;13.556;2023-09-30T08:19:14;8.13;;;1.30;;
16922;SDS011;8578;50.938;13.556;2023-09-30T08:21:42;6.10;;;1.53;;
16922;SDS011;8578;50.938;13.556;2023-09-30T08:24:10;7.47;;;1.50;;
16922;SDS011;8578;50.938;13.556;2023-09-30T08:26:37;5.53;;;1.77;;
16922;SDS011;8578;50.938;13.556;2023-09-30T08:29:05;6.43;;;1.63;;
16922;SDS011;8578;50.938;13.556;2023-09-30T08:31:33;7.17;;;1.67;;
16922;SDS011;8578;50.938;13.556;2023-09-30T08:34:00;8.30;;;1.60;;
16922;SDS011;8578;50.938;13.556;2023-09-30T08:36:31;6.70;;;1.37;;
16922;SDS011;8578;50.938;13.556;2023-09-30T08:38:59;9.60;;;1.70;;
16922;SDS011;8578;50.938;13.556;2023-09-30T08:41:30;10.37;;;1.70;;
16922;SDS011;8578;50.938;13.556;2023-09-30T08:43:59;8.90;;;1.70;;
16922;SDS011;8578;50.938;13.556;2023-09-30T08:46:28;12.97;;;1.70;;
16922;SDS011;8578;50.938;13.556;2023-09-30T08:48:58;10.27;;;2.00;;
16922;SDS011;8578;50.938;13.556;2023-09-30T08:51:26;10.27;;;1.60;;
16922;SDS011;8578;50.938;13.556;2023-09-30T08:53:55;7.73;;;1.57;;
16922;SDS011;8578;50.938;13.556;2023-09-30T08:56:24;7.70;;;1.70;;
16922;SDS011;8578;50.938;13.556;2023-09-30T08:58:54;10.23;;;1.80;;
16922;SDS011;8578;50.938;13.556;2023-09-30T09:01:25;6.57;;;1.63;;
16922;SDS011;8578;50.938;13.556;2023-09-30T09:03:52;6.43;;;2.07;;
16922;SDS011;8578;50.938;13.556;2023-09-30T09:06:20;9.73;;;1.50;;
16922;SDS011;8578;50.938;13.556;2023-09-30T09:08:48;12.00;;;2.30;;
16922;SDS011;8578;50.938;13.556;2023-09-30T09:11:17;9.30;;;1.93;;
16922;SDS011;8578;50.938;13.556;2023-09-30T09:13:45;8.07;;;2.00;;
16922;SDS011;8578;50.938;13.556;2023-09-30T09:16:16;7.20;;;1.70;;
16922;SDS011;8578;50.938;13.556;2023-09-30T09:18:45;12.43;;;2.30;;
16922;SDS011;8578;50.938;13.556;2023-09-30T09:21:14;8.17;;;2.00;;
16922;SDS011;8578;50.938;13.556;2023-09-30T09:23:43;6.43;;;1.80;;
16922;SDS011;8578;50.938;13.556;2023-09-30T09:26:11;6.70;;;1.90;;
16922;SDS011;8578;50.938;13.556;2023-09-30T09:28:40;5.13;;;1.80;;
16922;SDS011;8578;50.938;13.556;2023-09-30T09:31:21;6.50;;;1.57;;
16922;SDS011;8578;50.938;13.556;2023-09-30T09:33:49;8.73;;;2.07;;
16922;SDS011;8578;50.938;13.556;2023-09-30T09:36:17;8.10;;;1.63;;
16922;SDS011;8578;50.938;13.556;2023-09-30T09:38:47;8.07;;;2.23;;
16922;SDS011;8578;50.938;13.556;2023-09-30T09:41:15;8.73;;;2.23;;
16922;SDS011;8578;50.938;13.556;2023-09-30T09:43:45;8.97;;;1.93;;
16922;SDS011;8578;50.938;13.556;2023-09-30T09:46:14;6.77;;;1.83;;
16922;SDS011;8578;50.938;13.556;2023-09-30T09:48:42;8.90;;;1.97;;
16922;SDS011;8578;50.938;13.556;2023-09-30T09:51:12;8.83;;;1.60;;
16922;SDS011;8578;50.938;13.556;2023-09-30T09:53:41;10.03;;;1.57;;
16922;SDS011;8578;50.938;13.556;2023-09-30T09:56:09;7.50;;;1.43;;
16922;SDS011;8578;50.938;13.556;2023-09-30T09:58:39;5.50;;;1.50;;
16922;SDS011;8578;50.938;13.556;2023-09-30T10:01:12;6.60;;;1.33;;
16922;SDS011;8578;50.938;13.556;2023-09-30T10:03:39;5.93;;;1.47;;
16922;SDS011;8578;50.938;13.556;2023-09-30T10:06:07;5.70;;;1.60;;
16922;SDS011;8578;50.938;13.556;2023-09-30T10:08:36;8.63;;;1.50;;
16922;SDS011;8578;50.938;13.556;2023-09-30T10:11:05;7.37;;;1.43;;
16922;SDS011;8578;50.938;13.556;2023-09-30T10:13:49;5.17;;;1.33;;
16922;SDS011;8578;50.938;13.556;2023-09-30T10:19:09;4.43;;;1.50;;
16922;SDS011;8578;50.938;13.556;2023-09-30T10:21:37;7.40;;;1.63;;
16922;SDS011;8578;50.938;13.556;2023-09-30T10:24:27;8.80;;;1.47;;
16922;SDS011;8578;50.938;13.556;2023-09-30T10:29:43;8.00;;;1.47;;
16922;SDS011;8578;50.938;13.556;2023-09-30T10:32:11;8.37;;;1.40;;
16922;SDS011;8578;50.938;13.556;2023-09-30T10:34:41;7.07;;;1.30;;
16922;SDS011;8578;50.938;13.556;2023-09-30T10:37:21;4.20;;;1.27;;
16922;SDS011;8578;50.938;13.556;2023-09-30T10:39:52;7.80;;;1.80;;
16922;SDS011;8578;50.938;13.556;2023-09-30T10:45:07;7.73;;;1.60;;
16922;SDS011;8578;50.938;13.556;2023-09-30T10:47:35;9.63;;;1.43;;
16922;SDS011;8578;50.938;13.556;2023-09-30T10:50:05;7.93;;;1.60;;
16922;SDS011;8578;50.938;13.556;2023-09-30T10:52:52;6.73;;;1.70;;
16922;SDS011;8578;50.938;13.556;2023-09-30T10:55:20;7.33;;;1.97;;
16922;SDS011;8578;50.938;13.556;2023-09-30T10:57:50;6.83;;;1.60;;
16922;SDS011;8578;50.938;13.556;2023-09-30T11:00:18;6.60;;;1.60;;
16922;SDS011;8578;50.938;13.556;2023-09-30T11:02:49;4.57;;;1.50;;
16922;SDS011;8578;50.938;13.556;2023-09-30T11:05:19;6.63;;;1.40;;
16922;SDS011;8578;50.938;13.556;2023-09-30T11:08:01;5.20;;;1.40;;
16922;SDS011;8578;50.938;13.556;2023-09-30T11:10:30;15.27;;;1.60;;
16922;SDS011;8578;50.938;13.556;2023-09-30T11:12:58;6.13;;;1.47;;
16922;SDS011;8578;50.938;13.556;2023-09-30T11:15:26;7.97;;;1.57;;
16922;SDS011;8578;50.938;13.556;2023-09-30T11:18:02;7.23;;;1.30;;
16922;SDS011;8578;50.938;13.556;2023-09-30T11:20:40;5.97;;;1.30;;
16922;SDS011;8578;50.938;13.556;2023-09-30T11:23:08;5.83;;;1.40;;
16922;SDS011;8578;50.938;13.556;2023-09-30T11:25:36;6.97;;;1.30;;
16922;SDS011;8578;50.938;13.556;2023-09-30T11:28:12;8.97;;;1.50;;
16922;SDS011;8578;50.938;13.556;2023-09-30T11:30:52;6.43;;;1.50;;
16922;SDS011;8578;50.938;13.556;2023-09-30T11:33:21;8.90;;;1.40;;
16922;SDS011;8578;50.938;13.556;2023-09-30T11:35:57;5.57;;;1.20;;
16922;SDS011;8578;50.938;13.556;2023-09-30T11:38:25;7.57;;;1.20;;
16922;SDS011;8578;50.938;13.556;2023-09-30T11:41:02;7.23;;;1.33;;
16922;SDS011;8578;50.938;13.556;2023-09-30T11:43:33;4.57;;;1.30;;
16922;SDS011;8578;50.938;13.556;2023-09-30T11:46:04;8.17;;;1.70;;
16922;SDS011;8578;50.938;13.556;2023-09-30T11:48:32;4.90;;;1.30;;
16922;SDS011;8578;50.938;13.556;2023-09-30T11:51:01;5.60;;;1.40;;
16922;SDS011;8578;50.938;13.556;2023-09-30T11:53:29;4.53;;;1.20;;
16922;SDS011;8578;50.938;13.556;2023-09-30T11:55:58;6.10;;;1.30;;
16922;SDS011;8578;50.938;13.556;2023-09-30T11:58:26;5.03;;;1.13;;
16922;SDS011;8578;50.938;13.556;2023-09-30T12:00:54;5.10;;;1.40;;
16922;SDS011;8578;50.938;13.556;2023-09-30T12:03:23;5.50;;;1.20;;
16922;SDS011;8578;50.938;13.556;2023-09-30T12:05:51;8.43;;;1.40;;
16922;SDS011;8578;50.938;13.556;2023-09-30T12:08:22;6.77;;;1.60;;
16922;SDS011;8578;50.938;13.556;2023-09-30T12:10:50;10.80;;;1.50;;
16922;SDS011;8578;50.938;13.556;2023-09-30T12:13:18;8.47;;;1.83;;
16922;SDS011;8578;50.938;13.556;2023-09-30T12:15:46;4.30;;;1.10;;
16922;SDS011;8578;50.938;13.556;2023-09-30T12:18:15;7.23;;;1.00;;
16922;SDS011;8578;50.938;13.556;2023-09-30T12:20:49;6.07;;;1.40;;
16922;SDS011;8578;50.938;13.556;2023-09-30T12:23:18;5.23;;;1.10;;
16922;SDS011;8578;50.938;13.556;2023-09-30T12:25:48;4.87;;;1.10;;
16922;SDS011;8578;50.938;13.556;2023-09-30T12:28:32;3.53;;;0.97;;
16922;SDS011;8578;50.938;13.556;2023-09-30T12:31:00;4.67;;;1.23;;
16922;SDS011;8578;50.938;13.556;2023-09-30T12:33:29;8.17;;;1.17;;
16922;SDS011;8578;50.938;13.556;2023-09-30T12:35:58;6.30;;;1.50;;
16922;SDS011;8578;50.938;13.556;2023-09-30T12:38:27;5.37;;;1.47;;
16922;SDS011;8578;50.938;13.556;2023-09-30T12:40:56;7.73;;;1.33;;
16922;SDS011;8578;50.938;13.556;2023-09-30T12:43:24;4.80;;;1.10;;
16922;SDS011;8578;50.938;13.556;2023-09-30T12:45:52;11.67;;;1.63;;
16922;SDS011;8578;50.938;13.556;2023-09-30T12:48:20;6.97;;;1.10;;
16922;SDS011;8578;50.938;13.556;2023-09-30T12:50:49;9.97;;;1.50;;
16922;SDS011;8578;50.938;13.556;2023-09-30T12:53:17;8.43;;;2.13;;
16922;SDS011;8578;50.938;13.556;2023-09-30T12:55:44;9.37;;;1.60;;
16922;SDS011;8578;50.938;13.556;2023-09-30T12:58:13;5.07;;;1.30;;
16922;SDS011;8578;50.938;13.556;2023-09-30T13:00:41;7.90;;;1.47;;
16922;SDS011;8578;50.938;13.556;2023-09-30T13:03:09;3.73;;;1.20;;
16922;SDS011;8578;50.938;13.556;2023-09-30T13:05:39;9.23;;;1.67;;
16922;SDS011;8578;50.938;13.556;2023-09-30T13:08:09;7.00;;;1.20;;
16922;SDS011;8578;50.938;13.556;2023-09-30T13:10:37;4.73;;;1.30;;
16922;SDS011;8578;50.938;13.556;2023-09-30T13:13:05;7.07;;;1.40;;
16922;SDS011;8578;50.938;13.556;2023-09-30T13:15:34;9.97;;;1.50;;
16922;SDS011;8578;50.938;13.556;2023-09-30T13:18:04;5.63;;;1.20;;
16922;SDS011;8578;50.938;13.556;2023-09-30T13:20:32;5.23;;;1.37;;
16922;SDS011;8578;50.938;13.556;2023-09-30T13:22:59;5.50;;;1.43;;
16922;SDS011;8578;50.938;13.556;2023-09-30T13:25:28;4.67;;;1.20;;
16922;SDS011;8578;50.938;13.556;2023-09-30T13:27:56;5.90;;;1.23;;
16922;SDS011;8578;50.938;13.556;2023-09-30T13:30:24;4.73;;;1.10;;
16922;SDS011;8578;50.938;13.556;2023-09-30T13:32:53;6.50;;;1.07;;
16922;SDS011;8578;50.938;13.556;2023-09-30T13:35:20;5.60;;;1.40;;
16922;SDS011;8578;50.938;13.556;2023-09-30T13:37:49;3.93;;;1.00;;
16922;SDS011;8578;50.938;13.556;2023-09-30T13:40:16;7.73;;;1.53;;
16922;SDS011;8578;50.938;13.556;2023-09-30T13:42:44;8.87;;;1.97;;
16922;SDS011;8578;50.938;13.556;2023-09-30T13:45:12;4.03;;;1.03;;
16922;SDS011;8578;50.938;13.556;2023-09-30T13:47:43;3.63;;;1.00;;
16922;SDS011;8578;50.938;13.556;2023-09-30T13:50:12;5.27;;;1.00;;
16922;SDS011;8578;50.938;13.556;2023-09-30T13:52:40;3.77;;;0.90;;
16922;SDS011;8578;50.938;13.556;2023-09-30T13:55:07;6.87;;;1.50;;
16922;SDS011;8578;50.938;13.556;2023-09-30T13:57:38;4.67;;;1.00;;
16922;SDS011;8578;50.938;13.556;2023-09-30T14:00:08;4.43;;;1.03;;
16922;SDS011;8578;50.938;13.556;2023-09-30T14:02:38;7.30;;;1.10;;
16922;SDS011;8578;50.938;13.556;2023-09-30T14:05:06;7.17;;;1.17;;
16922;SDS011;8578;50.938;13.556;2023-09-30T14:07:36;4.47;;;1.33;;
16922;SDS011;8578;50.938;13.556;2023-09-30T14:10:04;8.43;;;1.43;;
16922;SDS011;8578;50.938;13.556;2023-09-30T14:12:32;4.43;;;1.10;;
16922;SDS011;8578;50.938;13.556;2023-09-30T14:15:00;5.47;;;1.20;;
16922;SDS011;8578;50.938;13.556;2023-09-30T14:17:28;4.20;;;0.93;;
16922;SDS011;8578;50.938;13.556;2023-09-30T14:19:56;4.93;;;1.00;;
16922;SDS011;8578;50.938;13.556;2023-09-30T14:22:23;4.07;;;1.27;;
16922;SDS011;8578;50.938;13.556;2023-09-30T14:24:53;6.67;;;1.37;;
16922;SDS011;8578;50.938;13.556;2023-09-30T14:27:20;2.77;;;0.90;;
16922;SDS011;8578;50.938;13.556;2023-09-30T14:29:48;3.47;;;1.00;;
16922;SDS011;8578;50.938;13.556;2023-09-30T14:32:16;8.80;;;1.40;;
16922;SDS011;8578;50.938;13.556;2023-09-30T14:34:44;4.00;;;1.00;;
16922;SDS011;8578;50.938;13.556;2023-09-30T14:37:11;4.97;;;0.93;;
16922;SDS011;8578;50.938;13.556;2023-09-30T14:39:39;4.27;;;1.20;;
16922;SDS011;8578;50.938;13.556;2023-09-30T14:42:08;2.70;;;0.90;;
16922;SDS011;8578;50.938;13.556;2023-09-30T14:44:39;6.37;;;1.40;;
16922;SDS011;8578;50.938;13.556;2023-09-30T14:47:07;3.77;;;1.10;;
16922;SDS011;8578;50.938;13.556;2023-09-30T14:49:36;5.37;;;1.07;;
16922;SDS011;8578;50.938;13.556;2023-09-30T14:52:04;5.97;;;1.47;;
16922;SDS011;8578;50.938;13.556;2023-09-30T14:54:33;7.27;;;1.40;;
16922;SDS011;8578;50.938;13.556;2023-09-30T14:57:01;5.83;;;1.27;;
16922;SDS011;8578;50.938;13.556;2023-09-30T14:59:33;8.20;;;1.40;;
16922;SDS011;8578;50.938;13.556;2023-09-30T15:02:01;6.97;;;1.50;;
16922;SDS011;8578;50.938;13.556;2023-09-30T15:04:30;2.93;;;0.77;;
16922;SDS011;8578;50.938;13.556;2023-09-30T15:06:59;6.57;;;1.53;;